Time;durP1;ratioP1;P1;durP2;ratioP2;P2;SDS_P1;SDS_P2;PMS_P1;PMS_P2;Temp;Humidity;BMP_temperature;BMP_pressure;BME280_temperature;BME280_humidity;BME280_pressure;Samples;Min_cycle;Max_cycle;Signal;HPM_P1;HPM_P2
2024/03/04 00:00:01;;;;;;;3.55;1.67;;;9.30;1.00;;;;;;5055283;28;20471;-58
2024/03/04 00:02:28;;;;;;;2.63;1.25;;;9.30;1.00;;;;;;5055616;28;20429;-59
2024/03/04 00:04:55;;;;;;;3.10;1.20;;;9.30;1.00;;;;;;5055475;28;20527;-59
2024/03/04 00:07:24;;;;;;;2.10;1.20;;;9.30;1.00;;;;;;5055598;28;20819;-59
2024/03/04 00:09:51;;;;;;;3.63;1.55;;;9.30;99.90;;;;;;5055794;28;20429;-60
2024/03/04 00:12:19;;;;;;;2.70;1.20;;;9.20;1.00;;;;;;5054723;28;20527;-59
2024/03/04 00:14:45;;;;;;;3.23;1.30;;;9.20;1.00;;;;;;5056180;28;20484;-60
2024/03/04 00:17:12;;;;;;;2.55;1.30;;;9.20;1.00;;;;;;5055004;28;20548;-59
2024/03/04 00:19:39;;;;;;;3.28;1.30;;;9.30;1.00;;;;;;5055228;28;20524;-59
2024/03/04 00:22:06;;;;;;;4.97;1.88;;;9.30;1.00;;;;;;5055213;28;20839;-60
2024/03/04 00:24:34;;;;;;;2.45;1.40;;;9.20;76.60;;;;;;5057026;28;20520;-59
2024/03/04 00:27:02;;;;;;;2.83;1.42;;;9.20;99.90;;;;;;5055682;28;20460;-60
2024/03/04 00:29:30;;;;;;;3.80;1.50;;;9.20;99.90;;;;;;5054971;28;20461;-59
2024/03/04 00:31:57;;;;;;;3.53;1.67;;;9.20;99.90;;;;;;5056087;28;20440;-59
2024/03/04 00:34:24;;;;;;;3.95;1.50;;;9.20;99.90;;;;;;5054742;28;20511;-59
2024/03/04 00:36:51;;;;;;;4.68;2.15;;;9.20;99.90;;;;;;5055000;28;20460;-60
2024/03/04 00:39:18;;;;;;;6.03;2.10;;;9.20;99.90;;;;;;5054515;28;20445;-60
2024/03/04 00:41:47;;;;;;;3.70;1.40;;;9.20;99.90;;;;;;5055585;28;20812;-59
2024/03/04 00:44:14;;;;;;;5.93;2.00;;;9.10;99.90;;;;;;5055181;28;20464;-60
2024/03/04 00:46:41;;;;;;;3.03;1.55;;;9.10;99.90;;;;;;5053844;28;20759;-60
2024/03/04 00:49:08;;;;;;;3.13;1.42;;;9.10;1.00;;;;;;5037457;28;20761;-59
2024/03/04 00:51:37;;;;;;;4.32;1.50;;;9.10;99.90;;;;;;5045821;28;20536;-60
2024/03/04 00:54:05;;;;;;;4.20;1.83;;;9.10;1.00;;;;;;5046852;28;20542;-60
2024/03/04 00:56:31;;;;;;;4.10;1.80;;;9.10;99.90;;;;;;5040422;28;20496;-60
2024/03/04 00:59:00;;;;;;;4.40;1.80;;;9.10;1.00;;;;;;5043139;28;20532;-60
2024/03/04 01:01:26;;;;;;;3.40;1.70;;;9.00;1.00;;;;;;5059641;28;20417;-60
2024/03/04 01:03:53;;;;;;;4.60;2.20;;;9.00;1.00;;;;;;5042233;28;20799;-60
2024/03/04 01:06:20;;;;;;;4.20;2.20;;;9.00;1.00;;;;;;5055584;28;20517;-59
2024/03/04 01:08:48;;;;;;;5.38;1.70;;;9.00;1.00;;;;;;5045366;28;20558;-60
2024/03/04 01:11:15;;;;;;;2.88;1.55;;;8.90;1.00;;;;;;5049690;28;20790;-62
2024/03/04 01:13:42;;;;;;;4.20;1.92;;;8.90;1.00;;;;;;5057762;28;20826;-60
2024/03/04 01:16:10;;;;;;;4.25;1.67;;;8.90;1.00;;;;;;5058588;28;20839;-60
2024/03/04 01:18:37;;;;;;;3.40;1.45;;;8.80;1.00;;;;;;5057490;28;20481;-60
2024/03/04 01:21:06;;;;;;;4.32;1.77;;;8.80;1.00;;;;;;5039330;28;20445;-59
2024/03/04 01:23:33;;;;;;;2.22;1.42;;;8.80;1.00;;;;;;5056603;28;20560;-60
2024/03/04 01:26:00;;;;;;;2.45;1.30;;;8.90;1.00;;;;;;5041570;28;20782;-59
2024/03/04 01:28:28;;;;;;;3.55;1.60;;;8.90;1.00;;;;;;5041460;28;20776;-60
2024/03/04 01:30:55;;;;;;;3.95;1.90;;;9.00;1.00;;;;;;5052081;28;20452;-59
2024/03/04 01:33:24;;;;;;;5.00;1.80;;;8.90;99.90;;;;;;5058703;28;20437;-60
2024/03/04 01:35:50;;;;;;;3.53;1.60;;;8.90;1.00;;;;;;5058288;28;20771;-59
2024/03/04 01:38:17;;;;;;;3.70;1.58;;;8.90;1.00;;;;;;5059379;28;20476;-60
2024/03/04 01:40:44;;;;;;;4.25;1.80;;;8.90;1.00;;;;;;5057862;28;20429;-60
2024/03/04 01:43:11;;;;;;;3.45;1.70;;;8.90;1.00;;;;;;5057665;28;20460;-60
2024/03/04 01:45:39;;;;;;;3.28;1.75;;;8.90;1.00;;;;;;5041917;28;20442;-60
2024/03/04 01:48:09;;;;;;;6.10;1.60;;;8.90;1.00;;;;;;5038199;28;20824;-60
2024/03/04 01:50:40;;;;;;;3.70;2.00;;;8.90;1.00;;;;;;5048142;28;20523;-60
2024/03/04 01:53:09;;;;;;;3.30;1.92;;;8.80;1.00;;;;;;5042330;28;20902;-60
2024/03/04 01:55:40;;;;;;;4.80;2.00;;;8.80;1.00;;;;;;5044894;28;20425;-60
2024/03/04 01:58:09;;;;;;;4.05;2.03;;;8.80;1.00;;;;;;5050146;28;20430;-60
2024/03/04 02:00:40;;;;;;;5.15;2.30;;;8.80;1.00;;;;;;5037678;28;20439;-60
2024/03/04 02:03:07;;;;;;;7.55;2.60;;;8.80;1.00;;;;;;5037042;28;20870;-60
2024/03/04 02:05:35;;;;;;;4.17;2.20;;;8.90;1.00;;;;;;5037119;28;20439;-59
2024/03/04 02:08:06;;;;;;;3.30;1.80;;;8.80;1.00;;;;;;5054270;28;20758;-59
2024/03/04 02:10:33;;;;;;;4.05;1.90;;;8.80;1.00;;;;;;5034100;28;20431;-59
2024/03/04 02:13:00;;;;;;;6.90;2.00;;;8.70;1.00;;;;;;5052250;28;20788;-60
2024/03/04 02:15:26;;;;;;;5.65;2.10;;;8.70;1.00;;;;;;5055258;28;20460;-59
2024/03/04 02:17:54;;;;;;;4.32;1.80;;;8.70;1.00;;;;;;5053704;28;20433;-59
2024/03/04 02:20:23;;;;;;;3.50;2.22;;;8.70;1.00;;;;;;5048039;28;20438;-59
2024/03/04 02:22:51;;;;;;;4.70;2.35;;;8.70;1.00;;;;;;5046857;28;20520;-59
2024/03/04 02:25:22;;;;;;;7.00;3.10;;;8.70;1.00;;;;;;5056099;28;20773;-59
2024/03/04 02:27:49;;;;;;;4.32;2.15;;;8.60;1.00;;;;;;5047339;28;20431;-59
2024/03/04 02:30:16;;;;;;;4.25;2.20;;;8.60;1.00;;;;;;5036958;28;20463;-59
2024/03/04 02:32:43;;;;;;;4.70;2.20;;;8.60;1.00;;;;;;5043642;28;20468;-58
2024/03/04 02:35:10;;;;;;;3.35;1.98;;;8.70;1.00;;;;;;5046408;28;20439;-59
2024/03/04 02:37:38;;;;;;;4.18;2.30;;;8.70;1.00;;;;;;5037196;28;20509;-58
2024/03/04 02:40:08;;;;;;;3.95;1.90;;;8.70;1.00;;;;;;5038881;28;20435;-58
2024/03/04 02:42:34;;;;;;;5.88;1.80;;;8.70;1.00;;;;;;5037913;28;20510;-59
2024/03/04 02:45:01;;;;;;;3.70;1.60;;;8.60;1.00;;;;;;5057431;28;20464;-59
2024/03/04 02:47:28;;;;;;;6.10;2.30;;;8.60;1.00;;;;;;5057012;28;20457;-59
2024/03/04 02:49:55;;;;;;;4.50;2.05;;;8.60;1.00;;;;;;5037718;28;20431;-59
2024/03/04 02:52:22;;;;;;;3.25;1.60;;;8.60;1.00;;;;;;5037622;28;20462;-60
2024/03/04 02:54:49;;;;;;;5.10;1.90;;;8.50;1.00;;;;;;5048408;28;20887;-58
2024/03/04 02:57:18;;;;;;;3.40;1.60;;;8.50;1.00;;;;;;5036649;28;20553;-59
2024/03/04 02:59:47;;;;;;;3.90;1.80;;;8.40;1.00;;;;;;5037380;28;20716;-59
2024/03/04 03:02:15;;;;;;;4.95;2.00;;;8.40;1.00;;;;;;5037302;28;20466;-59
2024/03/04 03:04:42;;;;;;;3.40;2.00;;;8.40;1.00;;;;;;5037461;28;20740;-59
2024/03/04 03:07:09;;;;;;;3.22;1.70;;;8.50;1.00;;;;;;5037335;28;20823;-59
2024/03/04 03:09:36;;;;;;;5.38;2.13;;;8.50;1.00;;;;;;5038049;28;20520;-59
2024/03/04 03:12:03;;;;;;;4.75;1.85;;;8.50;1.00;;;;;;5036294;28;20832;-60
2024/03/04 03:14:32;;;;;;;5.30;2.30;;;8.40;1.00;;;;;;5037039;28;20442;-59
2024/03/04 03:16:59;;;;;;;3.95;2.10;;;8.40;1.00;;;;;;5036708;28;20431;-60
2024/03/04 03:19:27;;;;;;;4.30;2.40;;;8.40;1.00;;;;;;5038649;28;21181;-59
2024/03/04 03:21:55;;;;;;;4.20;2.03;;;8.40;1.00;;;;;;5057572;28;20487;-59
2024/03/04 03:24:22;;;;;;;4.13;2.20;;;8.40;1.00;;;;;;5053962;28;20472;-59
2024/03/04 03:26:50;;;;;;;3.22;2.47;;;8.40;1.00;;;;;;5038856;28;20451;-59
2024/03/04 03:29:17;;;;;;;3.35;1.70;;;8.40;1.00;;;;;;5039288;28;20513;-59
2024/03/04 03:31:45;;;;;;;4.22;1.90;;;8.40;1.00;;;;;;5056774;28;20421;-59
2024/03/04 03:34:12;;;;;;;4.72;2.20;;;8.40;1.00;;;;;;5056660;28;20732;-60
2024/03/04 03:36:41;;;;;;;3.63;2.20;;;8.40;1.00;;;;;;5056756;28;20863;-59
2024/03/04 03:39:09;;;;;;;3.92;1.90;;;8.50;1.00;;;;;;5055469;28;20473;-59
2024/03/04 03:41:36;;;;;;;4.47;1.80;;;8.50;1.00;;;;;;5055986;28;20696;-59
2024/03/04 03:44:03;;;;;;;5.65;2.45;;;8.50;1.00;;;;;;5056361;28;20471;-59
2024/03/04 03:46:30;;;;;;;5.20;2.30;;;8.60;1.00;;;;;;5056144;28;20752;-59
2024/03/04 03:48:58;;;;;;;4.40;2.67;;;8.60;1.00;;;;;;5045476;28;20466;-59
2024/03/04 03:51:25;;;;;;;4.13;2.90;;;8.60;1.00;;;;;;5042009;28;20440;-59
2024/03/04 03:53:52;;;;;;;6.57;3.20;;;8.70;1.00;;;;;;5056669;28;20429;-60
2024/03/04 03:56:19;;;;;;;5.55;3.33;;;8.70;1.00;;;;;;5052523;28;20437;-59
2024/03/04 03:58:46;;;;;;;7.40;3.80;;;8.80;1.00;;;;;;5036329;28;20430;-59
2024/03/04 04:01:13;;;;;;;7.28;2.83;;;8.80;1.00;;;;;;5036071;28;20425;-59
2024/03/04 04:03:40;;;;;;;5.53;2.47;;;8.90;1.00;;;;;;5036291;28;20534;-59
2024/03/04 04:06:09;;;;;;;6.90;2.78;;;8.90;1.00;;;;;;5037214;28;20473;-59
2024/03/04 04:08:36;;;;;;;6.70;3.38;;;8.80;1.00;;;;;;5036644;28;20435;-59
2024/03/04 04:11:03;;;;;;;6.82;3.40;;;8.80;1.00;;;;;;5035973;28;20422;-59
2024/03/04 04:13:30;;;;;;;5.95;2.83;;;8.90;1.00;;;;;;5036418;28;20832;-60
2024/03/04 04:15:57;;;;;;;5.97;2.80;;;8.90;1.00;;;;;;5036519;28;20415;-59
2024/03/04 04:18:24;;;;;;;6.07;3.08;;;9.00;1.00;;;;;;5036645;28;20512;-60
2024/03/04 04:20:51;;;;;;;7.95;4.10;;;9.10;1.00;;;;;;5036181;28;20446;-59
2024/03/04 04:23:19;;;;;;;8.18;4.00;;;9.10;1.00;;;;;;5036081;28;20533;-61
2024/03/04 04:25:46;;;;;;;7.82;3.70;;;9.10;1.00;;;;;;5036506;28;20517;-59
2024/03/04 04:28:13;;;;;;;6.20;3.38;;;9.10;1.00;;;;;;5037676;28;20908;-57
2024/03/04 04:30:40;;;;;;;7.28;2.90;;;9.10;1.00;;;;;;5042374;28;20489;-57
2024/03/04 04:33:07;;;;;;;9.18;3.65;;;9.10;1.00;;;;;;5035650;28;20525;-58
2024/03/04 04:35:35;;;;;;;9.25;4.60;;;9.20;1.00;;;;;;5035685;28;20697;-58
2024/03/04 04:38:02;;;;;;;7.20;3.90;;;9.20;1.00;;;;;;5036264;28;20903;-59
2024/03/04 04:40:30;;;;;;;7.10;3.80;;;9.20;1.00;;;;;;5035472;28;20530;-59
2024/03/04 04:42:58;;;;;;;7.95;3.83;;;9.20;1.00;;;;;;5037619;28;20543;-59
2024/03/04 04:45:26;;;;;;;8.68;4.90;;;9.20;1.00;;;;;;5055852;28;20460;-59
2024/03/04 04:47:53;;;;;;;8.50;4.20;;;9.10;1.00;;;;;;5055169;28;20846;-59
2024/03/04 04:50:20;;;;;;;9.68;5.05;;;9.10;1.00;;;;;;5054987;28;20480;-59
2024/03/04 04:52:47;;;;;;;10.23;4.28;;;9.10;1.00;;;;;;5054687;28;20846;-60
2024/03/04 04:55:14;;;;;;;9.63;4.88;;;9.00;1.00;;;;;;5054793;28;20417;-58
2024/03/04 04:57:42;;;;;;;8.70;4.47;;;9.10;1.00;;;;;;5052555;28;20433;-58
2024/03/04 05:00:12;;;;;;;9.23;5.57;;;9.10;1.00;;;;;;5034929;28;20542;-58
2024/03/04 05:02:40;;;;;;;9.68;5.45;;;9.00;1.00;;;;;;5034551;28;20709;-58
2024/03/04 05:05:07;;;;;;;8.00;4.22;;;9.10;1.00;;;;;;5034834;28;20952;-59
2024/03/04 05:07:34;;;;;;;10.53;5.33;;;9.10;1.60;;;;;;5034810;28;20419;-59
2024/03/04 05:10:01;;;;;;;10.13;5.20;;;9.10;1.00;;;;;;5034876;28;20502;-58
2024/03/04 05:12:29;;;;;;;10.27;5.50;;;9.10;1.00;;;;;;5034677;28;20513;-59
2024/03/04 05:14:57;;;;;;;10.60;5.27;;;9.20;1.00;;;;;;5047144;28;20465;-59
2024/03/04 05:17:24;;;;;;;11.60;6.30;;;9.20;1.00;;;;;;5055894;28;20437;-59
2024/03/04 05:19:51;;;;;;;11.30;5.55;;;9.20;1.00;;;;;;5053348;28;20436;-59
2024/03/04 05:22:18;;;;;;;12.75;6.05;;;9.30;1.00;;;;;;5035360;28;20439;-59
2024/03/04 05:24:45;;;;;;;12.80;6.13;;;9.20;1.00;;;;;;5040473;28;20517;-59
2024/03/04 05:27:12;;;;;;;12.20;5.45;;;9.10;1.00;;;;;;5054219;28;20421;-59
2024/03/04 05:29:39;;;;;;;11.18;5.53;;;9.00;11.40;;;;;;5036156;28;20534;-59
2024/03/04 05:32:08;;;;;;;11.68;5.32;;;9.10;19.30;;;;;;5034621;28;20470;-59
2024/03/04 05:34:35;;;;;;;13.88;6.30;;;9.10;12.10;;;;;;5035188;28;20773;-59
2024/03/04 05:37:02;;;;;;;11.90;5.53;;;9.10;14.70;;;;;;5034511;28;20415;-58
2024/03/04 05:39:31;;;;;;;12.18;6.35;;;9.10;16.10;;;;;;5036406;28;20713;-58
2024/03/04 05:41:58;;;;;;;11.23;4.93;;;9.20;16.00;;;;;;5038290;28;20457;-58
2024/03/04 05:44:25;;;;;;;10.98;5.97;;;9.20;10.20;;;;;;5039090;28;20431;-57
2024/03/04 05:46:52;;;;;;;13.20;6.00;;;9.20;7.50;;;;;;5039135;28;20777;-59
2024/03/04 05:49:20;;;;;;;12.23;6.43;;;9.20;10.30;;;;;;5038252;28;20473;-59
2024/03/04 05:51:47;;;;;;;13.32;7.22;;;9.20;11.50;;;;;;5037800;28;20558;-60
2024/03/04 05:54:14;;;;;;;13.15;5.80;;;9.20;3.70;;;;;;5038389;28;20493;-60
2024/03/04 05:56:43;;;;;;;10.70;5.40;;;9.20;7.10;;;;;;5039300;28;20564;-60
2024/03/04 05:59:10;;;;;;;12.73;6.15;;;9.20;8.20;;;;;;5039056;28;20437;-60
2024/03/04 06:01:37;;;;;;;14.73;6.57;;;9.30;4.70;;;;;;5038421;28;20714;-59
2024/03/04 06:04:04;;;;;;;13.48;6.82;;;9.20;10.50;;;;;;5037687;28;20509;-60
2024/03/04 06:06:33;;;;;;;13.82;7.22;;;9.10;18.30;;;;;;5022217;28;20511;-60
2024/03/04 06:09:02;;;;;;;12.18;6.97;;;9.20;19.00;;;;;;5025218;28;20509;-60
2024/03/04 06:11:29;;;;;;;12.70;6.80;;;9.20;27.90;;;;;;5018950;28;20526;-59
2024/03/04 06:13:56;;;;;;;14.07;7.35;;;9.10;24.20;;;;;;5017705;28;20522;-59
2024/03/04 06:16:23;;;;;;;14.57;6.90;;;9.20;26.80;;;;;;5018305;28;20515;-58
2024/03/04 06:18:50;;;;;;;15.50;6.82;;;9.30;20.80;;;;;;5017942;28;20527;-59
2024/03/04 06:21:18;;;;;;;16.90;7.88;;;9.30;17.80;;;;;;5019123;28;20831;-60
2024/03/04 06:23:46;;;;;;;11.57;5.90;;;9.20;22.70;;;;;;5037958;28;20453;-60
2024/03/04 06:26:13;;;;;;;15.65;8.48;;;9.30;17.30;;;;;;5037537;28;20555;-60
2024/03/04 06:28:41;;;;;;;17.52;7.88;;;9.30;12.20;;;;;;5036631;28;20522;-60
2024/03/04 06:31:08;;;;;;;15.38;7.97;;;9.30;16.90;;;;;;5037038;28;20534;-60
2024/03/04 06:33:35;;;;;;;18.67;9.30;;;9.20;20.30;;;;;;5036680;28;20511;-60
2024/03/04 06:36:02;;;;;;;17.20;8.68;;;9.20;24.30;;;;;;5036887;28;20435;-60
2024/03/04 06:38:30;;;;;;;18.08;9.52;;;9.20;50.20;;;;;;5035346;28;20553;-60
2024/03/04 06:40:58;;;;;;;17.10;8.60;;;9.20;39.80;;;;;;5034753;28;20441;-60
2024/03/04 06:43:25;;;;;;;15.57;9.13;;;9.20;33.50;;;;;;5039861;28;20528;-60
2024/03/04 06:45:52;;;;;;;18.23;9.07;;;9.20;50.70;;;;;;5041012;28;20759;-60
2024/03/04 06:48:19;;;;;;;13.75;8.38;;;9.10;42.30;;;;;;5048489;28;20436;-59
2024/03/04 06:50:46;;;;;;;17.92;8.30;;;9.20;40.30;;;;;;5054400;28;20519;-60
2024/03/04 06:53:13;;;;;;;14.73;7.53;;;9.10;47.60;;;;;;5037879;28;20825;-60
2024/03/04 06:55:40;;;;;;;18.15;9.23;;;9.10;50.70;;;;;;5048055;28;20523;-60
2024/03/04 06:58:08;;;;;;;20.20;9.68;;;9.10;50.10;;;;;;5050590;28;20469;-61
2024/03/04 07:00:35;;;;;;;16.52;8.63;;;9.10;53.40;;;;;;5037624;28;20523;-60
2024/03/04 07:03:02;;;;;;;15.82;7.60;;;9.10;57.10;;;;;;5045117;28;20508;-60
2024/03/04 07:05:29;;;;;;;16.70;9.33;;;9.10;65.30;;;;;;5036593;28;20528;-60
2024/03/04 07:07:56;;;;;;;19.02;9.88;;;9.20;56.90;;;;;;5046874;28;20781;-60
2024/03/04 07:10:24;;;;;;;18.48;8.70;;;9.20;49.90;;;;;;5036221;28;20510;-60
2024/03/04 07:12:50;;;;;;;18.98;9.63;;;9.30;46.20;;;;;;5037030;28;20419;-60
2024/03/04 07:15:19;;;;;;;16.80;8.60;;;9.30;41.70;;;;;;5036929;28;20847;-60
2024/03/04 07:17:45;;;;;;;18.13;10.25;;;9.30;47.50;;;;;;5052679;28;20527;-60
2024/03/04 07:20:13;;;;;;;18.23;9.40;;;9.30;46.40;;;;;;5035119;28;20533;-61
2024/03/04 07:22:40;;;;;;;18.52;9.63;;;9.20;51.50;;;;;;5034887;28;20514;-60
2024/03/04 07:25:08;;;;;;;16.88;8.68;;;9.30;52.00;;;;;;5030225;28;20420;-60
2024/03/04 07:27:35;;;;;;;16.60;8.95;;;9.30;44.70;;;;;;5032811;28;20445;-62
2024/03/04 07:30:03;;;;;;;17.27;8.70;;;9.30;50.90;;;;;;5034073;28;20442;-62
2024/03/04 07:32:31;;;;;;;19.38;8.50;;;9.50;35.60;;;;;;5039795;28;20462;-62
2024/03/04 07:34:58;;;;;;;18.40;9.23;;;9.50;25.80;;;;;;5031783;28;21177;-62
2024/03/04 07:37:25;;;;;;;20.27;8.45;;;9.40;39.00;;;;;;5018662;28;20427;-62
2024/03/04 07:39:52;;;;;;;16.80;8.82;;;9.40;41.80;;;;;;5034652;28;20502;-60
2024/03/04 07:42:20;;;;;;;16.43;8.20;;;9.30;46.90;;;;;;5034976;28;20462;-63
2024/03/04 07:44:47;;;;;;;19.85;8.60;;;9.30;62.00;;;;;;5029473;28;20714;-63
2024/03/04 07:47:14;;;;;;;16.65;7.20;;;9.30;67.30;;;;;;5027618;28;20898;-62
2024/03/04 07:49:42;;;;;;;16.35;7.97;;;9.40;67.50;;;;;;5027291;28;20453;-63
2024/03/04 07:52:09;;;;;;;19.05;9.15;;;9.50;39.60;;;;;;5025923;28;20457;-62
2024/03/04 07:54:36;;;;;;;17.55;8.27;;;9.60;28.60;;;;;;5031625;28;20876;-62
2024/03/04 07:57:04;;;;;;;13.55;8.00;;;9.60;29.70;;;;;;5032485;28;20691;-63
2024/03/04 07:59:33;;;;;;;18.25;8.45;;;9.70;24.90;;;;;;5034886;28;20449;-63
2024/03/04 08:02:03;;;;;;;13.98;7.05;;;9.80;15.80;;;;;;5034200;28;20504;-61
2024/03/04 08:04:32;;;;;;;14.30;7.20;;;9.80;3.40;;;;;;5035929;28;20474;-61
2024/03/04 08:07:00;;;;;;;16.88;8.43;;;9.90;1.00;;;;;;5035581;28;20438;-61
2024/03/04 08:09:27;;;;;;;13.57;6.43;;;9.80;1.00;;;;;;5034917;28;20478;-62
2024/03/04 08:11:54;;;;;;;14.82;6.07;;;9.70;9.20;;;;;;5030646;28;20537;-62
2024/03/04 08:14:20;;;;;;;14.32;7.57;;;9.90;10.20;;;;;;5034860;28;20813;-62
2024/03/04 08:16:48;;;;;;;18.42;8.05;;;9.90;1.00;;;;;;5033107;28;20450;-63
2024/03/04 08:19:16;;;;;;;17.10;8.90;;;9.80;1.00;;;;;;5035038;28;20439;-62
2024/03/04 08:21:44;;;;;;;16.65;7.88;;;9.60;18.30;;;;;;5020151;28;20512;-62
2024/03/04 08:24:13;;;;;;;15.13;7.68;;;9.70;25.10;;;;;;5019588;28;20442;-62
2024/03/04 08:26:39;;;;;;;19.58;9.20;;;9.80;22.20;;;;;;5018376;28;20474;-62
2024/03/04 08:29:06;;;;;;;16.00;7.47;;;10.00;4.30;;;;;;5026259;28;20442;-63
2024/03/04 08:31:36;;;;;;;16.23;8.23;;;10.00;1.00;;;;;;5041280;28;21147;-61
2024/03/04 08:34:05;;;;;;;13.95;7.30;;;10.00;1.00;;;;;;5051500;28;20417;-60
2024/03/04 08:36:32;;;;;;;12.73;7.47;;;10.10;1.00;;;;;;5037512;28;21039;-60
2024/03/04 08:38:59;;;;;;;16.00;7.82;;;10.00;1.00;;;;;;5028037;28;20439;-60
2024/03/04 08:41:27;;;;;;;16.95;8.13;;;10.10;1.00;;;;;;5018624;28;20884;-60
2024/03/04 08:43:54;;;;;;;15.35;8.02;;;10.10;4.30;;;;;;5019645;28;20529;-60
2024/03/04 08:46:21;;;;;;;18.05;8.10;;;10.10;1.50;;;;;;5021155;28;21298;-60
2024/03/04 08:48:48;;;;;;;16.40;7.95;;;10.10;19.60;;;;;;5030253;28;20835;-59
2024/03/04 08:51:17;;;;;;;17.58;9.05;;;10.20;12.40;;;;;;5034264;28;20525;-59
2024/03/04 08:53:44;;;;;;;17.13;8.10;;;10.10;7.50;;;;;;5033583;28;20776;-59
2024/03/04 08:56:11;;;;;;;15.50;7.38;;;10.10;22.40;;;;;;5030149;28;20474;-59
2024/03/04 08:58:43;;;;;;;12.70;7.75;;;10.20;19.60;;;;;;5036338;28;20499;-60
2024/03/04 09:01:10;;;;;;;14.15;7.57;;;10.30;8.10;;;;;;5053975;28;20421;-60
2024/03/04 09:03:37;;;;;;;14.25;8.00;;;10.30;1.00;;;;;;5054621;28;20761;-60
2024/03/04 09:06:04;;;;;;;16.85;8.07;;;10.30;1.00;;;;;;5048078;28;20454;-60
2024/03/04 09:08:31;;;;;;;13.60;7.87;;;10.20;1.00;;;;;;5034398;28;20806;-60
2024/03/04 09:11:01;;;;;;;16.83;8.25;;;10.20;5.40;;;;;;5035089;28;20429;-60
2024/03/04 09:13:27;;;;;;;17.05;8.50;;;10.00;20.90;;;;;;5036371;28;20419;-59
2024/03/04 09:15:56;;;;;;;19.15;8.75;;;9.80;43.90;;;;;;5038465;28;20786;-59
2024/03/04 09:18:23;;;;;;;19.75;8.20;;;9.70;59.70;;;;;;5038033;28;20964;-60
2024/03/04 09:20:49;;;;;;;17.15;8.02;;;9.60;86.80;;;;;;5038670;28;20513;-60
2024/03/04 09:23:17;;;;;;;15.50;7.82;;;9.70;99.50;;;;;;5038514;28;20529;-60
2024/03/04 09:25:43;;;;;;;17.35;8.43;;;10.00;88.00;;;;;;5046978;28;20446;-59
2024/03/04 09:28:10;;;;;;;16.93;8.77;;;10.30;49.40;;;;;;5033988;28;20462;-58
2024/03/04 09:30:38;;;;;;;18.65;9.55;;;10.40;23.60;;;;;;5036279;28;20533;-59
2024/03/04 09:33:07;;;;;;;18.20;8.88;;;10.40;4.20;;;;;;5037048;28;20466;-60
2024/03/04 09:35:34;;;;;;;23.88;11.60;;;10.30;6.10;;;;;;5036445;28;20442;-59
2024/03/04 09:38:01;;;;;;;21.85;11.07;;;10.30;1.00;;;;;;5038233;28;20524;-59
2024/03/04 09:40:28;;;;;;;17.88;8.82;;;10.30;1.00;;;;;;5030932;28;20443;-59
2024/03/04 09:42:57;;;;;;;21.83;11.63;;;10.20;1.00;;;;;;5031318;28;20522;-59
2024/03/04 09:45:27;;;;;;;21.23;10.80;;;10.00;1.00;;;;;;5030275;28;20533;-61
2024/03/04 09:47:57;;;;;;;20.90;10.02;;;10.00;20.10;;;;;;5037929;28;20447;-60
2024/03/04 09:50:25;;;;;;;25.30;11.30;;;10.00;1.80;;;;;;5035971;28;20473;-59
2024/03/04 09:52:56;;;;;;;25.15;11.30;;;9.90;22.60;;;;;;5037337;28;20482;-59
2024/03/04 09:55:23;;;;;;;26.52;11.82;;;9.90;29.80;;;;;;5037221;28;20869;-59
2024/03/04 09:57:50;;;;;;;25.63;11.38;;;9.90;28.00;;;;;;5036408;28;20837;-60
2024/03/04 10:00:18;;;;;;;23.25;10.63;;;10.00;13.80;;;;;;5035129;28;20446;-59
2024/03/04 10:02:46;;;;;;;26.20;13.20;;;10.00;2.70;;;;;;5033632;28;20892;-60
2024/03/04 10:05:14;;;;;;;22.73;11.63;;;10.00;1.00;;;;;;5036337;28;20533;-59
2024/03/04 10:07:42;;;;;;;24.85;12.00;;;10.00;7.10;;;;;;5036908;28;20971;-60
2024/03/04 10:10:12;;;;;;;25.85;10.82;;;10.10;1.00;;;;;;5020032;28;20467;-60
2024/03/04 10:12:39;;;;;;;24.33;10.95;;;10.10;1.00;;;;;;5032630;28;20541;-59
2024/03/04 10:15:09;;;;;;;21.90;11.97;;;9.90;1.00;;;;;;5032207;28;20541;-58
2024/03/04 10:17:37;;;;;;;28.52;12.48;;;10.00;7.60;;;;;;5028028;28;20454;-61
2024/03/04 10:20:10;;;;;;;23.63;11.77;;;10.10;7.60;;;;;;5033751;28;20508;-63
2024/03/04 10:22:39;;;;;;;23.20;10.73;;;10.20;1.00;;;;;;5027935;28;20435;-63
2024/03/04 10:25:08;;;;;;;21.00;10.55;;;10.40;1.00;;;;;;5031094;28;20465;-63
2024/03/04 10:27:36;;;;;;;20.00;9.88;;;10.70;1.00;;;;;;5034780;28;20447;-63
2024/03/04 10:30:11;;;;;;;23.50;12.10;;;10.80;1.00;;;;;;5031887;28;20545;-62
2024/03/04 10:32:39;;;;;;;20.58;10.20;;;10.60;1.00;;;;;;5026623;28;20529;-63
2024/03/04 10:35:07;;;;;;;21.87;11.40;;;10.70;1.00;;;;;;5033998;28;20497;-63
2024/03/04 10:37:33;;;;;;;22.70;10.77;;;10.60;1.00;;;;;;5029925;28;20545;-63
2024/03/04 10:40:00;;;;;;;20.87;10.13;;;10.60;1.00;;;;;;5029251;28;20461;-63
2024/03/04 10:43:06;;;;;;;23.90;12.18;;;10.50;1.00;;;;;;5028926;28;20445;-64
2024/03/04 10:45:37;;;;;;;22.80;11.00;;;10.50;1.00;;;;;;5033980;28;20867;-63
2024/03/04 10:48:07;;;;;;;27.27;13.07;;;10.40;1.00;;;;;;5025702;28;20453;-64
2024/03/04 10:50:34;;;;;;;24.30;13.05;;;10.30;1.00;;;;;;5025211;28;20577;-63
2024/03/04 10:53:01;;;;;;;26.67;11.27;;;10.30;1.00;;;;;;5030827;28;20423;-64
2024/03/04 10:55:30;;;;;;;23.90;11.98;;;10.30;1.00;;;;;;5024733;28;20447;-63
2024/03/04 10:58:02;;;;;;;23.55;9.88;;;10.40;1.00;;;;;;5030356;28;20826;-63
2024/03/04 11:00:33;;;;;;;19.88;9.85;;;10.60;1.00;;;;;;5026547;28;20450;-65
2024/03/04 11:03:12;;;;;;;21.30;9.82;;;10.70;1.00;;;;;;5027562;28;20534;-63
2024/03/04 11:05:44;;;;;;;21.25;10.48;;;10.70;1.00;;;;;;5033821;28;20447;-64
2024/03/04 11:08:15;;;;;;;21.38;10.57;;;10.90;1.00;;;;;;5034484;28;20554;-64
2024/03/04 11:10:47;;;;;;;21.55;10.50;;;11.00;1.00;;;;;;5032442;28;20445;-64
2024/03/04 11:13:22;;;;;;;22.75;10.60;;;11.10;1.00;;;;;;5035346;28;20428;-64
2024/03/04 11:15:55;;;;;;;21.33;10.48;;;11.10;1.00;;;;;;5034420;28;20466;-64
2024/03/04 11:18:36;;;;;;;19.55;9.68;;;10.90;1.00;;;;;;5032042;28;20741;-65
2024/03/04 11:21:04;;;;;;;21.37;11.20;;;11.00;1.00;;;;;;5028972;28;20860;-65
2024/03/04 11:23:35;;;;;;;24.95;10.93;;;10.90;1.00;;;;;;5027375;28;20960;-63
2024/03/04 11:26:02;;;;;;;20.75;11.30;;;11.00;1.00;;;;;;5027281;28;20427;-64
2024/03/04 11:28:32;;;;;;;22.25;9.85;;;11.00;1.00;;;;;;5030951;28;20904;-63
2024/03/04 11:31:00;;;;;;;24.13;11.13;;;10.80;1.00;;;;;;5030302;28;20443;-64
2024/03/04 11:33:40;;;;;;;23.00;10.13;;;10.60;1.00;;;;;;5032167;28;20446;-66
2024/03/04 11:36:10;;;;;;;19.17;10.18;;;10.50;1.00;;;;;;5034377;28;20435;-66
2024/03/04 11:38:42;;;;;;;17.95;9.23;;;10.70;1.00;;;;;;5035529;28;20431;-67
2024/03/04 11:41:09;;;;;;;19.25;10.73;;;10.90;1.00;;;;;;5033526;28;20579;-67
2024/03/04 11:43:48;;;;;;;23.15;10.65;;;11.10;1.00;;;;;;5034252;28;20466;-67
2024/03/04 11:46:18;;;;;;;22.25;12.32;;;10.90;1.00;;;;;;5056077;28;20444;-66
2024/03/04 11:48:46;;;;;;;22.90;10.47;;;11.00;1.00;;;;;;5053357;28;20447;-65
2024/03/04 11:51:14;;;;;;;20.55;10.35;;;11.00;1.00;;;;;;5050599;28;20445;-68
2024/03/04 11:53:44;;;;;;;20.60;9.57;;;11.20;1.00;;;;;;5053951;28;20463;-66
2024/03/04 11:56:13;;;;;;;22.40;10.10;;;11.30;1.00;;;;;;5053747;28;20824;-67
2024/03/04 11:58:44;;;;;;;16.20;8.70;;;11.40;1.00;;;;;;5051497;28;20437;-65
2024/03/04 12:01:11;;;;;;;22.00;11.05;;;11.40;1.00;;;;;;5036679;28;20488;-68
2024/03/04 12:03:51;;;;;;;18.73;9.98;;;11.40;1.00;;;;;;5052337;28;20452;-67
2024/03/04 12:06:19;;;;;;;17.85;9.07;;;11.40;1.00;;;;;;5041156;28;20503;-66
2024/03/04 12:08:46;;;;;;;21.60;10.43;;;11.40;1.00;;;;;;5053004;28;20521;-68
2024/03/04 12:11:15;;;;;;;17.73;8.10;;;11.50;1.00;;;;;;5054611;28;20819;-68
2024/03/04 12:13:48;;;;;;;21.17;9.20;;;11.50;1.00;;;;;;5052893;28;20443;-66
2024/03/04 12:16:15;;;;;;;17.77;9.20;;;11.50;1.00;;;;;;5040447;28;20801;-68
2024/03/04 12:18:42;;;;;;;20.10;10.70;;;11.30;1.00;;;;;;5052733;28;20512;-68
2024/03/04 12:21:10;;;;;;;20.05;9.00;;;11.00;1.00;;;;;;5053548;28;20524;-68
2024/03/04 12:23:38;;;;;;;15.93;8.45;;;10.90;1.00;;;;;;5048215;28;20449;-68
2024/03/04 12:26:12;;;;;;;19.40;9.30;;;11.10;1.00;;;;;;5053673;28;20527;-68
2024/03/04 12:28:39;;;;;;;20.45;8.90;;;11.20;1.00;;;;;;5045006;28;20534;-68
2024/03/04 12:31:11;;;;;;;16.55;8.55;;;11.00;1.00;;;;;;5047738;28;20445;-68
2024/03/04 12:33:38;;;;;;;19.20;9.23;;;11.10;1.00;;;;;;5052236;28;20525;-71
2024/03/04 12:36:07;;;;;;;15.38;7.63;;;11.30;1.00;;;;;;5052218;28;20440;-69
2024/03/04 12:38:33;;;;;;;15.77;8.55;;;11.40;1.00;;;;;;5052714;28;20461;-69
2024/03/04 12:41:00;;;;;;;20.98;8.15;;;11.50;1.00;;;;;;5050651;28;20432;-69
2024/03/04 12:43:30;;;;;;;17.38;8.23;;;11.40;1.00;;;;;;5051835;28;20433;-68
2024/03/04 12:45:57;;;;;;;19.98;10.10;;;11.20;1.00;;;;;;5048693;28;20437;-70
2024/03/04 12:48:26;;;;;;;19.08;8.18;;;11.10;1.00;;;;;;5062141;28;20909;-71
2024/03/04 12:50:53;;;;;;;18.83;7.97;;;11.10;1.00;;;;;;5058447;28;20483;-69
2024/03/04 12:53:20;;;;;;;19.95;9.18;;;10.80;1.00;;;;;;5049075;28;20914;-68
2024/03/04 12:55:48;;;;;;;18.50;9.00;;;10.70;1.00;;;;;;5051001;28;20527;-68